sensor_id;sensor_type;location;lat;lon;timestamp;temperature;humidity
13713;DHT22;6928;50.546;7.120;2024-02-15T00:00:32;12.30;82.56
13713;DHT22;6928;50.546;7.120;2024-02-15T00:03:01;12.33;82.12
13713;DHT22;6928;50.546;7.120;2024-02-15T00:05:27;12.22;83.00
13713;DHT22;6928;50.546;7.120;2024-02-15T00:07:54;12.14;83.39
13713;DHT22;6928;50.546;7.120;2024-02-15T00:10:21;12.09;83.52
13713;DHT22;6928;50.546;7.120;2024-02-15T00:12:48;12.21;82.97
13713;DHT22;6928;50.546;7.120;2024-02-15T00:15:16;12.26;82.61
13713;DHT22;6928;50.546;7.120;2024-02-15T00:17:42;12.30;82.40
13713;DHT22;6928;50.546;7.120;2024-02-15T00:20:11;12.32;82.45
13713;DHT22;6928;50.546;7.120;2024-02-15T00:22:39;12.36;82.09
13713;DHT22;6928;50.546;7.120;2024-02-15T00:25:06;12.38;82.37
13713;DHT22;6928;50.546;7.120;2024-02-15T00:27:34;12.42;82.20
13713;DHT22;6928;50.546;7.120;2024-02-15T00:30:01;12.46;81.96
13713;DHT22;6928;50.546;7.120;2024-02-15T00:32:27;12.43;82.30
13713;DHT22;6928;50.546;7.120;2024-02-15T00:34:55;12.66;81.33
13713;DHT22;6928;50.546;7.120;2024-02-15T00:37:23;12.57;81.77
13713;DHT22;6928;50.546;7.120;2024-02-15T00:39:50;12.59;81.76
13713;DHT22;6928;50.546;7.120;2024-02-15T00:42:17;12.40;82.59
13713;DHT22;6928;50.546;7.120;2024-02-15T00:44:44;12.43;82.46
13713;DHT22;6928;50.546;7.120;2024-02-15T00:47:11;12.40;82.41
13713;DHT22;6928;50.546;7.120;2024-02-15T00:49:38;12.55;82.23
13713;DHT22;6928;50.546;7.120;2024-02-15T00:52:05;12.52;82.14
13713;DHT22;6928;50.546;7.120;2024-02-15T00:54:33;12.53;82.22
13713;DHT22;6928;50.546;7.120;2024-02-15T00:57:00;12.36;82.67
13713;DHT22;6928;50.546;7.120;2024-02-15T00:59:27;12.22;83.72
13713;DHT22;6928;50.546;7.120;2024-02-15T01:01:56;12.24;83.65
13713;DHT22;6928;50.546;7.120;2024-02-15T01:04:23;12.21;83.70
13713;DHT22;6928;50.546;7.120;2024-02-15T01:06:50;12.18;83.78
13713;DHT22;6928;50.546;7.120;2024-02-15T01:09:17;12.05;84.22
13713;DHT22;6928;50.546;7.120;2024-02-15T01:11:46;11.79;85.28
13713;DHT22;6928;50.546;7.120;2024-02-15T01:14:13;11.85;85.20
13713;DHT22;6928;50.546;7.120;2024-02-15T01:16:40;11.87;85.00
13713;DHT22;6928;50.546;7.120;2024-02-15T01:19:07;11.84;85.45
13713;DHT22;6928;50.546;7.120;2024-02-15T01:21:34;11.81;85.42
13713;DHT22;6928;50.546;7.120;2024-02-15T01:24:01;11.88;85.48
13713;DHT22;6928;50.546;7.120;2024-02-15T01:26:28;11.78;85.61
13713;DHT22;6928;50.546;7.120;2024-02-15T01:28:57;11.84;85.60
13713;DHT22;6928;50.546;7.120;2024-02-15T01:31:24;11.60;86.74
13713;DHT22;6928;50.546;7.120;2024-02-15T01:33:51;11.67;86.58
13713;DHT22;6928;50.546;7.120;2024-02-15T01:36:18;11.82;86.00
13713;DHT22;6928;50.546;7.120;2024-02-15T01:38:45;11.61;86.65
13713;DHT22;6928;50.546;7.120;2024-02-15T01:41:12;11.50;87.48
13713;DHT22;6928;50.546;7.120;2024-02-15T01:43:43;11.46;87.92
13713;DHT22;6928;50.546;7.120;2024-02-15T01:46:12;11.61;87.18
13713;DHT22;6928;50.546;7.120;2024-02-15T01:48:41;11.46;88.00
13713;DHT22;6928;50.546;7.120;2024-02-15T01:51:10;11.57;87.45
13713;DHT22;6928;50.546;7.120;2024-02-15T01:53:40;11.63;87.24
13713;DHT22;6928;50.546;7.120;2024-02-15T01:56:08;11.53;87.45
13713;DHT22;6928;50.546;7.120;2024-02-15T01:58:37;11.58;87.30
13713;DHT22;6928;50.546;7.120;2024-02-15T02:01:06;11.58;87.46
13713;DHT22;6928;50.546;7.120;2024-02-15T02:03:35;11.60;87.19
13713;DHT22;6928;50.546;7.120;2024-02-15T02:06:03;11.63;87.23
13713;DHT22;6928;50.546;7.120;2024-02-15T02:08:30;11.50;86.99
13713;DHT22;6928;50.546;7.120;2024-02-15T02:10:57;11.48;87.36
13713;DHT22;6928;50.546;7.120;2024-02-15T02:13:24;11.44;87.88
13713;DHT22;6928;50.546;7.120;2024-02-15T02:15:50;11.43;88.12
13713;DHT22;6928;50.546;7.120;2024-02-15T02:18:18;11.48;87.71
13713;DHT22;6928;50.546;7.120;2024-02-15T02:20:46;11.51;87.57
13713;DHT22;6928;50.546;7.120;2024-02-15T02:23:14;11.36;87.85
13713;DHT22;6928;50.546;7.120;2024-02-15T02:25:44;11.46;87.63
13713;DHT22;6928;50.546;7.120;2024-02-15T02:28:14;11.41;87.40
13713;DHT22;6928;50.546;7.120;2024-02-15T02:30:41;11.40;87.84
13713;DHT22;6928;50.546;7.120;2024-02-15T02:33:11;11.34;87.98
13713;DHT22;6928;50.546;7.120;2024-02-15T02:35:44;11.30;88.25
13713;DHT22;6928;50.546;7.120;2024-02-15T02:38:13;11.27;88.34
13713;DHT22;6928;50.546;7.120;2024-02-15T02:40:40;11.30;88.38
13713;DHT22;6928;50.546;7.120;2024-02-15T02:43:09;11.27;88.26
13713;DHT22;6928;50.546;7.120;2024-02-15T02:45:36;11.02;89.88
13713;DHT22;6928;50.546;7.120;2024-02-15T02:48:04;11.26;88.62
13713;DHT22;6928;50.546;7.120;2024-02-15T02:50:30;11.20;88.66
13713;DHT22;6928;50.546;7.120;2024-02-15T02:52:57;11.12;89.19
13713;DHT22;6928;50.546;7.120;2024-02-15T02:55:24;11.27;88.69
13713;DHT22;6928;50.546;7.120;2024-02-15T02:57:52;11.31;88.66
13713;DHT22;6928;50.546;7.120;2024-02-15T03:00:22;11.23;88.29
13713;DHT22;6928;50.546;7.120;2024-02-15T03:02:49;11.06;88.54
13713;DHT22;6928;50.546;7.120;2024-02-15T03:05:15;11.07;88.80
13713;DHT22;6928;50.546;7.120;2024-02-15T03:07:42;11.10;88.07
13713;DHT22;6928;50.546;7.120;2024-02-15T03:10:10;11.12;88.52
13713;DHT22;6928;50.546;7.120;2024-02-15T03:12:39;11.17;88.58
13713;DHT22;6928;50.546;7.120;2024-02-15T03:15:13;11.03;88.74
13713;DHT22;6928;50.546;7.120;2024-02-15T03:17:43;10.99;88.65
13713;DHT22;6928;50.546;7.120;2024-02-15T03:20:13;10.83;88.55
13713;DHT22;6928;50.546;7.120;2024-02-15T03:22:51;10.88;89.23
13713;DHT22;6928;50.546;7.120;2024-02-15T03:25:19;10.80;89.58
13713;DHT22;6928;50.546;7.120;2024-02-15T03:27:49;10.85;90.15
13713;DHT22;6928;50.546;7.120;2024-02-15T03:30:17;10.95;89.18
13713;DHT22;6928;50.546;7.120;2024-02-15T03:32:46;10.89;89.19
13713;DHT22;6928;50.546;7.120;2024-02-15T03:35:14;10.88;89.24
13713;DHT22;6928;50.546;7.120;2024-02-15T03:37:41;10.80;89.32
13713;DHT22;6928;50.546;7.120;2024-02-15T03:40:09;10.71;89.62
13713;DHT22;6928;50.546;7.120;2024-02-15T03:42:36;10.58;90.51
13713;DHT22;6928;50.546;7.120;2024-02-15T03:45:04;10.73;89.95
13713;DHT22;6928;50.546;7.120;2024-02-15T03:47:31;10.80;89.40
13713;DHT22;6928;50.546;7.120;2024-02-15T03:50:00;10.73;89.14
13713;DHT22;6928;50.546;7.120;2024-02-15T03:52:28;10.76;89.67
13713;DHT22;6928;50.546;7.120;2024-02-15T03:54:55;10.66;89.54
13713;DHT22;6928;50.546;7.120;2024-02-15T03:57:22;10.76;89.41
13713;DHT22;6928;50.546;7.120;2024-02-15T03:59:49;10.64;89.49
13713;DHT22;6928;50.546;7.120;2024-02-15T04:02:18;10.75;89.72
13713;DHT22;6928;50.546;7.120;2024-02-15T04:04:45;10.58;89.49
13713;DHT22;6928;50.546;7.120;2024-02-15T04:07:14;10.44;89.88
13713;DHT22;6928;50.546;7.120;2024-02-15T04:09:42;10.51;89.66
13713;DHT22;6928;50.546;7.120;2024-02-15T04:12:08;10.42;90.46
13713;DHT22;6928;50.546;7.120;2024-02-15T04:14:35;10.54;89.79
13713;DHT22;6928;50.546;7.120;2024-02-15T04:17:04;10.46;89.48
13713;DHT22;6928;50.546;7.120;2024-02-15T04:19:31;10.33;89.65
13713;DHT22;6928;50.546;7.120;2024-02-15T04:21:58;10.24;89.77
13713;DHT22;6928;50.546;7.120;2024-02-15T04:24:27;10.25;89.57
13713;DHT22;6928;50.546;7.120;2024-02-15T04:26:53;10.18;89.80
13713;DHT22;6928;50.546;7.120;2024-02-15T04:29:20;10.31;89.38
13713;DHT22;6928;50.546;7.120;2024-02-15T04:31:47;10.20;90.83
13713;DHT22;6928;50.546;7.120;2024-02-15T04:34:15;10.45;89.87
13713;DHT22;6928;50.546;7.120;2024-02-15T04:36:46;10.42;89.73
13713;DHT22;6928;50.546;7.120;2024-02-15T04:39:15;10.21;90.34
13713;DHT22;6928;50.546;7.120;2024-02-15T04:41:50;10.07;91.21
13713;DHT22;6928;50.546;7.120;2024-02-15T04:44:17;10.24;90.21
13713;DHT22;6928;50.546;7.120;2024-02-15T04:46:45;10.51;91.26
13713;DHT22;6928;50.546;7.120;2024-02-15T04:49:12;10.44;91.27
13713;DHT22;6928;50.546;7.120;2024-02-15T04:51:39;10.52;91.12
13713;DHT22;6928;50.546;7.120;2024-02-15T04:54:07;10.49;90.97
13713;DHT22;6928;50.546;7.120;2024-02-15T04:56:34;10.46;90.66
13713;DHT22;6928;50.546;7.120;2024-02-15T04:59:02;10.45;90.47
13713;DHT22;6928;50.546;7.120;2024-02-15T05:01:29;10.40;90.00
13713;DHT22;6928;50.546;7.120;2024-02-15T05:03:58;10.31;90.18
13713;DHT22;6928;50.546;7.120;2024-02-15T05:06:25;10.25;90.06
13713;DHT22;6928;50.546;7.120;2024-02-15T05:08:55;10.20;90.21
13713;DHT22;6928;50.546;7.120;2024-02-15T05:11:23;10.11;90.34
13713;DHT22;6928;50.546;7.120;2024-02-15T05:13:50;10.08;90.53
13713;DHT22;6928;50.546;7.120;2024-02-15T05:16:18;10.01;90.59
13713;DHT22;6928;50.546;7.120;2024-02-15T05:18:45;10.05;90.16
13713;DHT22;6928;50.546;7.120;2024-02-15T05:21:12;10.20;89.57
13713;DHT22;6928;50.546;7.120;2024-02-15T05:23:39;10.18;89.96
13713;DHT22;6928;50.546;7.120;2024-02-15T05:26:08;10.17;89.93
13713;DHT22;6928;50.546;7.120;2024-02-15T05:28:35;10.08;90.27
13713;DHT22;6928;50.546;7.120;2024-02-15T05:31:11;10.11;90.18
13713;DHT22;6928;50.546;7.120;2024-02-15T05:33:41;10.04;89.86
13713;DHT22;6928;50.546;7.120;2024-02-15T05:36:10;10.03;90.00
13713;DHT22;6928;50.546;7.120;2024-02-15T05:38:37;10.00;89.98
13713;DHT22;6928;50.546;7.120;2024-02-15T05:41:04;9.86;90.53
13713;DHT22;6928;50.546;7.120;2024-02-15T05:43:32;10.00;90.05
13713;DHT22;6928;50.546;7.120;2024-02-15T05:46:02;9.97;90.01
13713;DHT22;6928;50.546;7.120;2024-02-15T05:48:29;10.04;90.24
13713;DHT22;6928;50.546;7.120;2024-02-15T05:50:57;9.98;90.17
13713;DHT22;6928;50.546;7.120;2024-02-15T05:53:26;9.90;90.39
13713;DHT22;6928;50.546;7.120;2024-02-15T05:55:53;9.84;90.64
13713;DHT22;6928;50.546;7.120;2024-02-15T05:58:20;9.82;90.96
13713;DHT22;6928;50.546;7.120;2024-02-15T06:00:47;9.93;90.71
13713;DHT22;6928;50.546;7.120;2024-02-15T06:03:15;9.87;90.85
13713;DHT22;6928;50.546;7.120;2024-02-15T06:05:42;10.01;90.51
13713;DHT22;6928;50.546;7.120;2024-02-15T06:08:11;9.91;90.93
13713;DHT22;6928;50.546;7.120;2024-02-15T06:10:38;10.00;90.86
13713;DHT22;6928;50.546;7.120;2024-02-15T06:13:05;10.00;90.63
13713;DHT22;6928;50.546;7.120;2024-02-15T06:15:34;10.14;90.22
13713;DHT22;6928;50.546;7.120;2024-02-15T06:18:04;10.01;90.64
13713;DHT22;6928;50.546;7.120;2024-02-15T06:20:34;9.97;90.98
13713;DHT22;6928;50.546;7.120;2024-02-15T06:23:01;9.90;91.47
13713;DHT22;6928;50.546;7.120;2024-02-15T06:25:31;10.03;91.06
13713;DHT22;6928;50.546;7.120;2024-02-15T06:27:58;10.04;91.09
13713;DHT22;6928;50.546;7.120;2024-02-15T06:30:28;10.24;90.78
13713;DHT22;6928;50.546;7.120;2024-02-15T06:33:12;10.34;90.09
13713;DHT22;6928;50.546;7.120;2024-02-15T06:35:56;10.49;90.50
13713;DHT22;6928;50.546;7.120;2024-02-15T06:38:40;10.69;89.83
13713;DHT22;6928;50.546;7.120;2024-02-15T06:41:26;10.83;89.54
13713;DHT22;6928;50.546;7.120;2024-02-15T06:43:54;10.88;89.56
13713;DHT22;6928;50.546;7.120;2024-02-15T06:46:21;10.80;89.79
13713;DHT22;6928;50.546;7.120;2024-02-15T06:48:48;10.80;90.18
13713;DHT22;6928;50.546;7.120;2024-02-15T06:51:15;10.95;89.64
13713;DHT22;6928;50.546;7.120;2024-02-15T06:53:42;10.92;89.82
13713;DHT22;6928;50.546;7.120;2024-02-15T06:56:09;10.97;89.52
13713;DHT22;6928;50.546;7.120;2024-02-15T06:58:38;11.06;89.17
13713;DHT22;6928;50.546;7.120;2024-02-15T07:01:05;11.07;89.23
13713;DHT22;6928;50.546;7.120;2024-02-15T07:03:33;11.13;89.06
13713;DHT22;6928;50.546;7.120;2024-02-15T07:05:59;11.36;88.09
13713;DHT22;6928;50.546;7.120;2024-02-15T07:08:26;11.27;88.24
13713;DHT22;6928;50.546;7.120;2024-02-15T07:10:53;11.24;88.56
13713;DHT22;6928;50.546;7.120;2024-02-15T07:13:20;11.19;88.93
13713;DHT22;6928;50.546;7.120;2024-02-15T07:15:48;11.33;88.51
13713;DHT22;6928;50.546;7.120;2024-02-15T07:18:17;11.28;88.53
13713;DHT22;6928;50.546;7.120;2024-02-15T07:20:45;11.26;88.89
13713;DHT22;6928;50.546;7.120;2024-02-15T07:23:12;11.37;88.32
13713;DHT22;6928;50.546;7.120;2024-02-15T07:25:39;11.33;88.57
13713;DHT22;6928;50.546;7.120;2024-02-15T07:28:06;11.40;88.17
13713;DHT22;6928;50.546;7.120;2024-02-15T07:30:35;11.47;87.89
13713;DHT22;6928;50.546;7.120;2024-02-15T07:33:04;11.40;88.10
13713;DHT22;6928;50.546;7.120;2024-02-15T07:35:32;11.46;87.70
13713;DHT22;6928;50.546;7.120;2024-02-15T07:37:58;11.48;87.60
13713;DHT22;6928;50.546;7.120;2024-02-15T07:40:27;11.50;87.51
13713;DHT22;6928;50.546;7.120;2024-02-15T07:42:56;11.61;86.87
13713;DHT22;6928;50.546;7.120;2024-02-15T07:45:23;11.56;87.12
13713;DHT22;6928;50.546;7.120;2024-02-15T07:47:50;11.56;87.39
13713;DHT22;6928;50.546;7.120;2024-02-15T07:50:18;11.56;87.25
13713;DHT22;6928;50.546;7.120;2024-02-15T07:52:48;11.63;87.13
13713;DHT22;6928;50.546;7.120;2024-02-15T07:55:15;11.61;87.05
13713;DHT22;6928;50.546;7.120;2024-02-15T07:57:42;11.61;87.04
13713;DHT22;6928;50.546;7.120;2024-02-15T08:00:09;11.65;86.75
13713;DHT22;6928;50.546;7.120;2024-02-15T08:02:38;11.68;86.91
13713;DHT22;6928;50.546;7.120;2024-02-15T08:05:07;11.73;86.61
13713;DHT22;6928;50.546;7.120;2024-02-15T08:07:37;11.79;86.50
13713;DHT22;6928;50.546;7.120;2024-02-15T08:10:06;11.82;86.35
13713;DHT22;6928;50.546;7.120;2024-02-15T08:12:38;11.82;86.31
13713;DHT22;6928;50.546;7.120;2024-02-15T08:15:06;11.87;86.47
13713;DHT22;6928;50.546;7.120;2024-02-15T08:17:41;11.87;86.55
13713;DHT22;6928;50.546;7.120;2024-02-15T08:20:10;11.87;86.58
13713;DHT22;6928;50.546;7.120;2024-02-15T08:22:39;11.97;86.43
13713;DHT22;6928;50.546;7.120;2024-02-15T08:25:08;11.94;86.80
13713;DHT22;6928;50.546;7.120;2024-02-15T08:27:38;11.95;86.75
13713;DHT22;6928;50.546;7.120;2024-02-15T08:30:09;12.02;86.76
13713;DHT22;6928;50.546;7.120;2024-02-15T08:32:36;12.05;86.51
13713;DHT22;6928;50.546;7.120;2024-02-15T08:35:06;12.15;85.64
13713;DHT22;6928;50.546;7.120;2024-02-15T08:37:32;12.19;85.48
13713;DHT22;6928;50.546;7.120;2024-02-15T08:40:02;12.24;85.15
13713;DHT22;6928;50.546;7.120;2024-02-15T08:42:30;12.21;85.43
13713;DHT22;6928;50.546;7.120;2024-02-15T08:44:57;12.24;85.48
13713;DHT22;6928;50.546;7.120;2024-02-15T08:47:24;12.24;85.59
13713;DHT22;6928;50.546;7.120;2024-02-15T08:49:52;12.22;85.74
13713;DHT22;6928;50.546;7.120;2024-02-15T08:52:19;12.28;85.74
13713;DHT22;6928;50.546;7.120;2024-02-15T08:54:46;12.28;85.64
13713;DHT22;6928;50.546;7.120;2024-02-15T08:57:14;12.29;85.44
13713;DHT22;6928;50.546;7.120;2024-02-15T08:59:41;12.28;85.29
13713;DHT22;6928;50.546;7.120;2024-02-15T09:02:08;12.24;85.68
13713;DHT22;6928;50.546;7.120;2024-02-15T09:04:35;12.30;85.63
13713;DHT22;6928;50.546;7.120;2024-02-15T09:07:01;12.29;85.54
13713;DHT22;6928;50.546;7.120;2024-02-15T09:09:30;12.32;85.58
13713;DHT22;6928;50.546;7.120;2024-02-15T09:11:57;12.33;85.46
13713;DHT22;6928;50.546;7.120;2024-02-15T09:14:25;12.33;85.72
13713;DHT22;6928;50.546;7.120;2024-02-15T09:16:52;12.33;85.54
13713;DHT22;6928;50.546;7.120;2024-02-15T09:19:19;12.32;85.29
13713;DHT22;6928;50.546;7.120;2024-02-15T09:21:45;12.35;85.42
13713;DHT22;6928;50.546;7.120;2024-02-15T09:24:12;12.43;84.87
13713;DHT22;6928;50.546;7.120;2024-02-15T09:26:41;12.49;84.26
13713;DHT22;6928;50.546;7.120;2024-02-15T09:29:09;12.50;84.74
13713;DHT22;6928;50.546;7.120;2024-02-15T09:31:39;12.60;84.36
13713;DHT22;6928;50.546;7.120;2024-02-15T09:34:06;12.64;84.17
13713;DHT22;6928;50.546;7.120;2024-02-15T09:36:34;12.66;84.11
13713;DHT22;6928;50.546;7.120;2024-02-15T09:39:03;12.76;83.91
13713;DHT22;6928;50.546;7.120;2024-02-15T09:41:30;12.81;83.65
13713;DHT22;6928;50.546;7.120;2024-02-15T09:43:57;12.86;83.60
13713;DHT22;6928;50.546;7.120;2024-02-15T09:46:24;12.94;83.20
13713;DHT22;6928;50.546;7.120;2024-02-15T09:48:56;13.00;83.14
13713;DHT22;6928;50.546;7.120;2024-02-15T09:51:25;13.06;82.75
13713;DHT22;6928;50.546;7.120;2024-02-15T09:53:52;13.14;82.35
13713;DHT22;6928;50.546;7.120;2024-02-15T09:56:20;13.25;82.44
13713;DHT22;6928;50.546;7.120;2024-02-15T09:58:50;13.32;81.56
13713;DHT22;6928;50.546;7.120;2024-02-15T10:01:19;13.39;80.73
13713;DHT22;6928;50.546;7.120;2024-02-15T10:03:49;13.52;81.56
13713;DHT22;6928;50.546;7.120;2024-02-15T10:06:17;13.55;80.69
13713;DHT22;6928;50.546;7.120;2024-02-15T10:08:44;13.76;79.93
13713;DHT22;6928;50.546;7.120;2024-02-15T10:11:13;13.92;79.82
13713;DHT22;6928;50.546;7.120;2024-02-15T10:13:40;14.14;78.82
13713;DHT22;6928;50.546;7.120;2024-02-15T10:16:16;14.30;78.62
13713;DHT22;6928;50.546;7.120;2024-02-15T10:18:44;14.33;78.14
13713;DHT22;6928;50.546;7.120;2024-02-15T10:21:26;14.43;77.32
13713;DHT22;6928;50.546;7.120;2024-02-15T10:24:08;14.48;77.53
13713;DHT22;6928;50.546;7.120;2024-02-15T10:26:36;14.68;76.75
13713;DHT22;6928;50.546;7.120;2024-02-15T10:29:07;14.70;76.29
13713;DHT22;6928;50.546;7.120;2024-02-15T10:31:37;14.70;75.93
13713;DHT22;6928;50.546;7.120;2024-02-15T10:34:06;14.77;76.06
13713;DHT22;6928;50.546;7.120;2024-02-15T10:36:34;14.94;75.19
13713;DHT22;6928;50.546;7.120;2024-02-15T10:39:12;14.87;74.41
13713;DHT22;6928;50.546;7.120;2024-02-15T10:41:44;14.98;75.02
13713;DHT22;6928;50.546;7.120;2024-02-15T10:44:16;15.31;71.20
13713;DHT22;6928;50.546;7.120;2024-02-15T10:46:46;14.99;74.01
13713;DHT22;6928;50.546;7.120;2024-02-15T10:49:19;15.23;73.11
13713;DHT22;6928;50.546;7.120;2024-02-15T10:51:53;15.11;73.97
13713;DHT22;6928;50.546;7.120;2024-02-15T10:54:39;15.16;73.91
13713;DHT22;6928;50.546;7.120;2024-02-15T10:57:09;15.52;73.44
13713;DHT22;6928;50.546;7.120;2024-02-15T10:59:38;15.66;67.98
13713;DHT22;6928;50.546;7.120;2024-02-15T11:02:23;15.71;69.73
13713;DHT22;6928;50.546;7.120;2024-02-15T11:04:53;15.42;71.47
13713;DHT22;6928;50.546;7.120;2024-02-15T11:07:25;15.36;71.76
13713;DHT22;6928;50.546;7.120;2024-02-15T11:09:53;15.69;66.74
13713;DHT22;6928;50.546;7.120;2024-02-15T11:12:21;15.49;71.03
13713;DHT22;6928;50.546;7.120;2024-02-15T11:14:49;15.36;71.08
13713;DHT22;6928;50.546;7.120;2024-02-15T11:17:48;15.69;68.61
13713;DHT22;6928;50.546;7.120;2024-02-15T11:20:47;15.62;68.95
13713;DHT22;6928;50.546;7.120;2024-02-15T11:23:26;15.70;67.61
13713;DHT22;6928;50.546;7.120;2024-02-15T11:25:54;15.82;67.60
13713;DHT22;6928;50.546;7.120;2024-02-15T11:28:40;15.62;70.05
13713;DHT22;6928;50.546;7.120;2024-02-15T11:31:10;15.67;69.44
13713;DHT22;6928;50.546;7.120;2024-02-15T11:33:39;15.56;68.89
13713;DHT22;6928;50.546;7.120;2024-02-15T11:36:06;15.62;69.68
13713;DHT22;6928;50.546;7.120;2024-02-15T11:38:35;15.66;69.62
13713;DHT22;6928;50.546;7.120;2024-02-15T11:41:03;15.64;69.69
13713;DHT22;6928;50.546;7.120;2024-02-15T11:44:01;15.83;69.17
13713;DHT22;6928;50.546;7.120;2024-02-15T11:46:28;15.93;66.09
13713;DHT22;6928;50.546;7.120;2024-02-15T11:49:00;15.77;68.43
13713;DHT22;6928;50.546;7.120;2024-02-15T11:51:33;15.94;67.60
13713;DHT22;6928;50.546;7.120;2024-02-15T11:54:05;15.90;68.35
13713;DHT22;6928;50.546;7.120;2024-02-15T11:59:20;16.22;65.22
13713;DHT22;6928;50.546;7.120;2024-02-15T12:01:57;16.01;67.40
13713;DHT22;6928;50.546;7.120;2024-02-15T12:04:42;16.07;67.52
13713;DHT22;6928;50.546;7.120;2024-02-15T12:07:27;16.25;65.58
13713;DHT22;6928;50.546;7.120;2024-02-15T12:10:19;16.37;63.60
13713;DHT22;6928;50.546;7.120;2024-02-15T12:13:03;16.42;60.52
13713;DHT22;6928;50.546;7.120;2024-02-15T12:15:58;16.44;62.59
13713;DHT22;6928;50.546;7.120;2024-02-15T12:18:43;16.64;59.82
13713;DHT22;6928;50.546;7.120;2024-02-15T12:21:14;16.65;59.93
13713;DHT22;6928;50.546;7.120;2024-02-15T12:23:43;16.64;59.27
13713;DHT22;6928;50.546;7.120;2024-02-15T12:26:12;16.78;58.57
13713;DHT22;6928;50.546;7.120;2024-02-15T12:28:41;16.71;59.16
13713;DHT22;6928;50.546;7.120;2024-02-15T12:31:09;16.83;58.55
13713;DHT22;6928;50.546;7.120;2024-02-15T12:33:39;16.85;57.73
13713;DHT22;6928;50.546;7.120;2024-02-15T12:36:07;16.83;58.15
13713;DHT22;6928;50.546;7.120;2024-02-15T12:38:34;16.79;57.72
13713;DHT22;6928;50.546;7.120;2024-02-15T12:41:03;16.88;58.62
13713;DHT22;6928;50.546;7.120;2024-02-15T12:43:33;16.92;58.10
13713;DHT22;6928;50.546;7.120;2024-02-15T12:46:01;16.86;57.83
13713;DHT22;6928;50.546;7.120;2024-02-15T12:48:28;16.86;58.11
13713;DHT22;6928;50.546;7.120;2024-02-15T12:50:55;16.90;57.77
13713;DHT22;6928;50.546;7.120;2024-02-15T12:53:22;16.85;57.90
13713;DHT22;6928;50.546;7.120;2024-02-15T12:55:53;17.07;57.10
13713;DHT22;6928;50.546;7.120;2024-02-15T12:58:21;17.05;57.15
13713;DHT22;6928;50.546;7.120;2024-02-15T13:00:54;17.05;56.78
13713;DHT22;6928;50.546;7.120;2024-02-15T13:03:24;17.05;56.71
13713;DHT22;6928;50.546;7.120;2024-02-15T13:05:51;17.12;56.41
13713;DHT22;6928;50.546;7.120;2024-02-15T13:08:18;17.03;56.64
13713;DHT22;6928;50.546;7.120;2024-02-15T13:10:45;16.95;56.44
13713;DHT22;6928;50.546;7.120;2024-02-15T13:13:12;16.92;56.36
13713;DHT22;6928;50.546;7.120;2024-02-15T13:15:41;16.93;56.60
13713;DHT22;6928;50.546;7.120;2024-02-15T13:18:10;16.89;56.74
13713;DHT22;6928;50.546;7.120;2024-02-15T13:20:39;16.90;56.93
13713;DHT22;6928;50.546;7.120;2024-02-15T13:23:08;16.86;57.23
13713;DHT22;6928;50.546;7.120;2024-02-15T13:25:41;16.90;57.10
13713;DHT22;6928;50.546;7.120;2024-02-15T13:28:09;16.89;57.14
13713;DHT22;6928;50.546;7.120;2024-02-15T13:30:36;16.92;57.13
13713;DHT22;6928;50.546;7.120;2024-02-15T13:33:03;16.90;57.14
13713;DHT22;6928;50.546;7.120;2024-02-15T13:35:32;16.89;56.99
13713;DHT22;6928;50.546;7.120;2024-02-15T13:38:00;16.92;57.60
13713;DHT22;6928;50.546;7.120;2024-02-15T13:40:28;17.03;57.61
13713;DHT22;6928;50.546;7.120;2024-02-15T13:42:58;17.09;57.62
13713;DHT22;6928;50.546;7.120;2024-02-15T13:45:28;17.02;57.87
13713;DHT22;6928;50.546;7.120;2024-02-15T13:47:59;16.89;57.11
13713;DHT22;6928;50.546;7.120;2024-02-15T13:50:28;16.85;56.93
13713;DHT22;6928;50.546;7.120;2024-02-15T13:52:57;16.86;57.91
13713;DHT22;6928;50.546;7.120;2024-02-15T13:55:25;16.80;57.61
13713;DHT22;6928;50.546;7.120;2024-02-15T13:57:52;16.75;57.67
13713;DHT22;6928;50.546;7.120;2024-02-15T14:00:19;16.76;57.60
13713;DHT22;6928;50.546;7.120;2024-02-15T14:02:57;16.79;58.11
13713;DHT22;6928;50.546;7.120;2024-02-15T14:05:25;16.83;57.65
13713;DHT22;6928;50.546;7.120;2024-02-15T14:07:57;16.88;57.66
13713;DHT22;6928;50.546;7.120;2024-02-15T14:10:28;16.79;57.80
13713;DHT22;6928;50.546;7.120;2024-02-15T14:12:55;16.78;57.74
13713;DHT22;6928;50.546;7.120;2024-02-15T14:15:23;16.68;57.96
13713;DHT22;6928;50.546;7.120;2024-02-15T14:17:50;16.79;58.00
13713;DHT22;6928;50.546;7.120;2024-02-15T14:20:18;16.82;58.08
13713;DHT22;6928;50.546;7.120;2024-02-15T14:22:47;16.88;58.35
13713;DHT22;6928;50.546;7.120;2024-02-15T14:25:17;16.86;58.69
13713;DHT22;6928;50.546;7.120;2024-02-15T14:27:43;16.71;59.18
13713;DHT22;6928;50.546;7.120;2024-02-15T14:30:12;16.64;59.37
13713;DHT22;6928;50.546;7.120;2024-02-15T14:32:56;16.62;59.68
13713;DHT22;6928;50.546;7.120;2024-02-15T14:35:35;16.65;59.76
13713;DHT22;6928;50.546;7.120;2024-02-15T14:38:05;16.45;59.35
13713;DHT22;6928;50.546;7.120;2024-02-15T14:40:36;16.48;59.87
13713;DHT22;6928;50.546;7.120;2024-02-15T14:43:04;16.40;60.45
13713;DHT22;6928;50.546;7.120;2024-02-15T14:45:32;16.35;60.91
13713;DHT22;6928;50.546;7.120;2024-02-15T14:47:59;16.38;61.19
13713;DHT22;6928;50.546;7.120;2024-02-15T14:50:26;16.27;62.17
13713;DHT22;6928;50.546;7.120;2024-02-15T14:52:54;16.25;62.78
13713;DHT22;6928;50.546;7.120;2024-02-15T14:55:21;16.21;62.86
13713;DHT22;6928;50.546;7.120;2024-02-15T14:57:49;16.24;63.18
13713;DHT22;6928;50.546;7.120;2024-02-15T15:00:16;16.14;63.09
13713;DHT22;6928;50.546;7.120;2024-02-15T15:02:45;16.11;63.17
13713;DHT22;6928;50.546;7.120;2024-02-15T15:05:12;16.14;63.39
13713;DHT22;6928;50.546;7.120;2024-02-15T15:07:56;16.11;63.07
13713;DHT22;6928;50.546;7.120;2024-02-15T15:10:41;16.10;63.10
13713;DHT22;6928;50.546;7.120;2024-02-15T15:13:27;16.08;63.27
13713;DHT22;6928;50.546;7.120;2024-02-15T15:15:53;16.04;63.14
13713;DHT22;6928;50.546;7.120;2024-02-15T15:18:20;16.00;63.26
13713;DHT22;6928;50.546;7.120;2024-02-15T15:20:47;15.96;63.49
13713;DHT22;6928;50.546;7.120;2024-02-15T15:23:15;15.90;63.83
13713;DHT22;6928;50.546;7.120;2024-02-15T15:25:42;15.83;63.79
13713;DHT22;6928;50.546;7.120;2024-02-15T15:28:10;15.84;63.61
13713;DHT22;6928;50.546;7.120;2024-02-15T15:30:38;15.79;63.88
13713;DHT22;6928;50.546;7.120;2024-02-15T15:33:05;15.73;63.91
13713;DHT22;6928;50.546;7.120;2024-02-15T15:35:32;15.74;64.17
13713;DHT22;6928;50.546;7.120;2024-02-15T15:38:00;15.69;64.40
13713;DHT22;6928;50.546;7.120;2024-02-15T15:40:26;15.69;64.35
13713;DHT22;6928;50.546;7.120;2024-02-15T15:42:53;15.67;64.36
13713;DHT22;6928;50.546;7.120;2024-02-15T15:45:21;15.64;64.19
13713;DHT22;6928;50.546;7.120;2024-02-15T15:47:49;15.71;64.72
13713;DHT22;6928;50.546;7.120;2024-02-15T15:50:16;15.69;64.89
13713;DHT22;6928;50.546;7.120;2024-02-15T15:52:43;15.62;65.12
13713;DHT22;6928;50.546;7.120;2024-02-15T15:55:11;15.67;65.08
13713;DHT22;6928;50.546;7.120;2024-02-15T15:57:38;15.67;65.36
13713;DHT22;6928;50.546;7.120;2024-02-15T16:00:07;15.57;64.92
13713;DHT22;6928;50.546;7.120;2024-02-15T16:02:40;15.56;65.17